createdAt,value
2018-04-06T00:00:27.689Z,0.00
2018-04-06T00:01:27.620Z,0.00
2018-04-06T00:02:27.577Z,0.00
2018-04-06T00:03:27.509Z,0.00
2018-04-06T00:04:27.497Z,0.00
2018-04-06T00:05:27.428Z,0.00
2018-04-06T00:06:27.416Z,0.00
2018-04-06T00:07:27.356Z,0.00
2018-04-06T00:08:27.323Z,0.00
2018-04-06T00:09:27.254Z,0.00
2018-04-06T00:10:27.216Z,0.00
2018-04-06T00:11:27.158Z,0.00
2018-04-06T00:12:27.157Z,0.00
2018-04-06T00:13:27.100Z,0.00
2018-04-06T00:14:27.072Z,0.00
2018-04-06T00:15:27.024Z,0.00
2018-04-06T00:16:26.983Z,0.00
2018-04-06T00:17:26.925Z,0.00
2018-04-06T00:18:26.875Z,0.00
2018-04-06T00:19:26.860Z,0.00
2018-04-06T00:20:26.771Z,0.00
2018-04-06T00:21:26.746Z,0.00
2018-04-06T00:22:26.692Z,0.00
2018-04-06T00:23:26.658Z,0.00
2018-04-06T00:24:26.645Z,0.00
2018-04-06T00:25:26.554Z,0.00
2018-04-06T00:26:26.537Z,0.00
2018-04-06T00:27:26.482Z,0.00
2018-04-06T00:28:26.448Z,0.00
2018-04-06T00:29:26.384Z,0.00
2018-04-06T00:30:26.362Z,0.00
2018-04-06T00:31:26.323Z,0.00
2018-04-06T00:32:26.272Z,0.00
2018-04-06T00:33:26.258Z,0.00
2018-04-06T00:34:26.190Z,0.00
2018-04-06T00:35:26.133Z,0.00
2018-04-06T00:36:26.076Z,0.00
2018-04-06T00:37:26.047Z,0.00
2018-04-06T00:38:26.029Z,0.00
2018-04-06T00:39:25.974Z,0.00
2018-04-06T00:40:25.945Z,0.00
2018-04-06T00:41:25.888Z,0.00
2018-04-06T00:42:25.831Z,0.00
2018-04-06T00:43:25.803Z,0.00
2018-04-06T00:44:25.742Z,0.00
2018-04-06T00:45:25.732Z,0.00
2018-04-06T00:46:25.657Z,0.00
2018-04-06T00:47:25.620Z,0.00
2018-04-06T00:48:25.582Z,0.00
2018-04-06T00:49:25.536Z,0.00
2018-04-06T00:50:25.509Z,0.00
2018-04-06T00:51:25.427Z,0.00
2018-04-06T00:52:25.391Z,0.00
2018-04-06T00:53:25.371Z,0.00
2018-04-06T00:54:25.330Z,0.00
2018-04-06T00:55:25.290Z,0.00
2018-04-06T00:56:25.251Z,0.00
2018-04-06T00:57:25.193Z,0.00
2018-04-06T00:58:25.166Z,0.00
2018-04-06T00:59:25.120Z,0.00
2018-04-06T01:00:25.067Z,0.00
2018-04-06T01:01:24.994Z,0.00
2018-04-06T01:02:24.952Z,0.00
2018-04-06T01:03:24.910Z,0.00
2018-04-06T01:04:24.906Z,0.00
2018-04-06T01:05:24.858Z,0.00
2018-04-06T01:06:24.793Z,0.00
2018-04-06T01:07:24.735Z,0.00
2018-04-06T01:08:24.700Z,0.00
2018-04-06T01:09:24.664Z,0.00
2018-04-06T01:10:24.634Z,0.00
2018-04-06T01:11:24.585Z,0.00
2018-04-06T01:12:24.532Z,0.00
2018-04-06T01:13:24.476Z,0.00
2018-04-06T01:14:24.449Z,0.00
2018-04-06T01:15:24.435Z,0.00
2018-04-06T01:16:24.357Z,0.00
2018-04-06T01:17:24.313Z,0.00
2018-04-06T01:18:24.270Z,0.00
2018-04-06T01:19:24.231Z,0.00
2018-04-06T01:20:24.196Z,0.00
2018-04-06T01:21:24.141Z,0.00
2018-04-06T01:22:24.113Z,0.00
2018-04-06T01:23:24.078Z,0.00
2018-04-06T01:24:24.020Z,0.00
2018-04-06T01:25:23.977Z,0.00
2018-04-06T01:26:23.945Z,0.00
2018-04-06T01:27:23.896Z,0.00
2018-04-06T01:28:23.842Z,0.00
2018-04-06T01:29:23.841Z,0.00
2018-04-06T01:30:23.759Z,0.00
2018-04-06T01:31:23.727Z,0.00
2018-04-06T01:32:23.686Z,0.00
2018-04-06T01:33:23.635Z,0.00
2018-04-06T01:34:23.577Z,0.00
2018-04-06T01:35:23.539Z,0.00
2018-04-06T01:36:23.504Z,0.00
2018-04-06T01:37:23.464Z,0.00
2018-04-06T01:38:23.409Z,0.00
2018-04-06T01:39:23.359Z,0.00
2018-04-06T01:40:23.334Z,0.00
2018-04-06T01:41:23.302Z,0.00
2018-04-06T01:42:23.247Z,0.00
2018-04-06T01:43:23.203Z,0.00
2018-04-06T01:44:23.142Z,0.00
2018-04-06T01:45:23.106Z,0.00
2018-04-06T01:46:23.076Z,0.00
2018-04-06T01:47:23.041Z,0.00
2018-04-06T01:48:22.956Z,0.00
2018-04-06T01:49:22.944Z,0.00
2018-04-06T01:50:22.879Z,0.00
2018-04-06T01:51:22.831Z,0.00
2018-04-06T01:52:22.810Z,0.00
2018-04-06T01:53:22.752Z,0.00
2018-04-06T01:54:22.700Z,0.00
2018-04-06T01:55:22.665Z,0.00
2018-04-06T01:56:22.637Z,0.00
2018-04-06T01:57:22.572Z,0.00
2018-04-06T01:58:22.542Z,0.00
2018-04-06T01:59:22.552Z,0.00
2018-04-06T02:00:22.468Z,0.00
2018-04-06T02:01:22.415Z,0.00
2018-04-06T02:02:22.375Z,0.00
2018-04-06T02:03:22.352Z,0.00
2018-04-06T02:04:22.276Z,0.00
2018-04-06T02:05:22.237Z,0.00
2018-04-06T02:06:22.189Z,0.00
2018-04-06T02:07:22.162Z,0.00
2018-04-06T02:08:22.090Z,0.00
2018-04-06T02:09:22.058Z,0.00
2018-04-06T02:10:22.035Z,0.00
2018-04-06T02:11:21.967Z,0.00
2018-04-06T02:12:21.929Z,0.00
2018-04-06T02:13:21.901Z,0.00
2018-04-06T02:14:21.835Z,0.00
2018-04-06T02:15:21.832Z,0.00
2018-04-06T02:16:21.788Z,0.00
2018-04-06T02:17:21.731Z,0.00
2018-04-06T02:18:21.714Z,0.00
2018-04-06T02:19:21.652Z,0.00
2018-04-06T02:20:21.610Z,0.00
2018-04-06T02:21:21.559Z,0.00
2018-04-06T02:22:21.496Z,0.00
2018-04-06T02:23:21.455Z,0.00
2018-04-06T02:24:21.423Z,0.00
2018-04-06T02:25:21.396Z,0.00
2018-04-06T02:26:21.316Z,0.00
2018-04-06T02:27:21.300Z,0.00
2018-04-06T02:28:21.228Z,0.00
2018-04-06T02:29:21.226Z,0.00
2018-04-06T02:30:21.170Z,0.00
2018-04-06T02:31:21.128Z,0.00
2018-04-06T02:32:21.056Z,0.00
2018-04-06T02:33:21.021Z,0.00
2018-04-06T02:34:20.988Z,0.00
2018-04-06T02:35:20.926Z,0.00
2018-04-06T02:36:20.895Z,0.00
2018-04-06T02:37:20.853Z,0.00
2018-04-06T02:38:20.798Z,0.00
2018-04-06T02:39:20.776Z,0.00
2018-04-06T02:40:20.724Z,0.00
2018-04-06T02:41:20.710Z,0.00
2018-04-06T02:42:20.630Z,0.00
2018-04-06T02:43:20.606Z,0.00
2018-04-06T02:44:20.551Z,0.00
2018-04-06T02:45:20.520Z,0.00
2018-04-06T02:46:20.458Z,0.00
2018-04-06T02:47:20.413Z,0.00
2018-04-06T02:48:20.376Z,0.00
2018-04-06T02:49:20.342Z,0.00
2018-04-06T02:50:20.302Z,0.00
2018-04-06T02:51:20.276Z,0.00
2018-04-06T02:52:20.210Z,0.00
2018-04-06T02:53:20.168Z,0.00
2018-04-06T02:54:20.136Z,0.00
2018-04-06T02:55:20.072Z,0.00
2018-04-06T02:56:20.037Z,0.00
2018-04-06T02:57:19.982Z,0.00
2018-04-06T02:58:19.927Z,0.00
2018-04-06T02:59:19.898Z,0.00
2018-04-06T03:00:19.851Z,0.00
2018-04-06T03:01:19.831Z,0.00
2018-04-06T03:02:19.783Z,0.00
2018-04-06T03:03:19.715Z,0.00
2018-04-06T03:04:19.695Z,0.00
2018-04-06T03:05:19.644Z,0.00
2018-04-06T03:06:19.622Z,0.00
2018-04-06T03:07:19.560Z,0.00
2018-04-06T03:08:19.507Z,0.00
2018-04-06T03:09:19.466Z,0.00
2018-04-06T03:10:19.434Z,0.00
2018-04-06T03:11:19.375Z,0.00
2018-04-06T03:12:19.352Z,0.00
2018-04-06T03:13:19.295Z,0.00
2018-04-06T03:14:19.261Z,0.00
2018-04-06T03:15:19.221Z,0.00
2018-04-06T03:16:19.162Z,0.00
2018-04-06T03:17:19.126Z,0.00
2018-04-06T03:18:19.090Z,0.00
2018-04-06T03:19:19.033Z,0.00
2018-04-06T03:20:19.013Z,0.00
2018-04-06T03:21:18.945Z,0.00
2018-04-06T03:22:18.919Z,0.00
2018-04-06T03:23:18.874Z,0.00
2018-04-06T03:24:18.811Z,0.00
2018-04-06T03:25:18.792Z,0.00
2018-04-06T03:26:18.736Z,0.00
2018-04-06T03:27:18.678Z,0.00
2018-04-06T03:28:18.641Z,0.00
2018-04-06T03:29:18.636Z,0.00
2018-04-06T03:30:18.552Z,0.00
2018-04-06T03:31:18.511Z,0.00
2018-04-06T03:32:18.485Z,0.00
2018-04-06T03:33:18.431Z,0.00
2018-04-06T03:34:18.389Z,0.00
2018-04-06T03:35:18.351Z,0.00
2018-04-06T03:36:18.296Z,0.00
2018-04-06T03:37:18.257Z,0.00
2018-04-06T03:38:18.217Z,0.00
2018-04-06T03:39:18.154Z,0.00
2018-04-06T03:40:18.109Z,0.00
2018-04-06T03:41:18.077Z,0.00
2018-04-06T03:42:18.037Z,0.00
2018-04-06T03:43:18.014Z,0.00
2018-04-06T03:44:17.941Z,0.00
2018-04-06T03:45:17.912Z,0.00
2018-04-06T03:46:17.862Z,0.00
2018-04-06T03:47:17.827Z,0.00
2018-04-06T03:48:17.759Z,0.00
2018-04-06T03:49:17.738Z,0.00
2018-04-06T03:50:17.701Z,0.00
2018-04-06T03:51:17.631Z,0.00
2018-04-06T03:52:17.618Z,0.00
2018-04-06T03:53:17.554Z,0.00
2018-04-06T03:54:17.507Z,0.00
2018-04-06T03:55:17.472Z,0.00
2018-04-06T03:56:17.470Z,0.00
2018-04-06T03:57:17.388Z,0.00
2018-04-06T03:58:17.332Z,0.00
2018-04-06T03:59:17.295Z,0.00
2018-04-06T04:00:17.237Z,0.00
2018-04-06T04:01:17.208Z,0.00
2018-04-06T04:02:17.187Z,0.00
2018-04-06T04:03:17.152Z,0.00
2018-04-06T04:04:17.072Z,0.00
2018-04-06T04:05:17.026Z,0.00
2018-04-06T04:06:16.990Z,0.00
2018-04-06T04:07:16.960Z,0.00
2018-04-06T04:08:16.918Z,0.00
2018-04-06T04:09:16.890Z,0.00
2018-04-06T04:10:16.832Z,0.00
2018-04-06T04:11:16.792Z,0.00
2018-04-06T04:12:16.725Z,0.00
2018-04-06T04:13:16.695Z,0.00
2018-04-06T04:14:16.632Z,0.00
2018-04-06T04:15:16.583Z,0.00
2018-04-06T04:16:16.559Z,0.00
2018-04-06T04:17:16.501Z,0.00
2018-04-06T04:18:16.473Z,0.00
2018-04-06T04:19:16.442Z,0.00
2018-04-06T04:20:16.387Z,0.00
2018-04-06T04:21:16.353Z,0.00
2018-04-06T04:22:16.323Z,0.00
2018-04-06T04:23:16.260Z,0.00
2018-04-06T04:24:16.204Z,0.00
2018-04-06T04:25:16.150Z,0.00
2018-04-06T04:26:16.138Z,0.00
2018-04-06T04:27:16.086Z,0.00
2018-04-06T04:28:16.048Z,0.00
2018-04-06T04:29:16.007Z,0.00
2018-04-06T04:30:15.960Z,0.00
2018-04-06T04:31:15.899Z,0.00
2018-04-06T04:32:15.889Z,0.00
2018-04-06T04:33:15.812Z,0.00
2018-04-06T04:34:15.773Z,0.00
2018-04-06T04:35:15.735Z,0.00
2018-04-06T04:36:15.681Z,0.00
2018-04-06T04:37:15.634Z,0.00
2018-04-06T04:38:15.602Z,0.00
2018-04-06T04:39:15.553Z,0.00
2018-04-06T04:40:15.513Z,0.00
2018-04-06T04:41:15.482Z,0.00
2018-04-06T04:42:15.420Z,0.00
2018-04-06T04:43:15.396Z,0.00
2018-04-06T04:44:15.340Z,0.00
2018-04-06T04:45:15.322Z,0.00
2018-04-06T04:46:15.268Z,0.00
2018-04-06T04:47:15.223Z,0.00
2018-04-06T04:48:15.180Z,0.00
2018-04-06T04:49:15.135Z,0.00
2018-04-06T04:50:15.112Z,0.00
2018-04-06T04:51:15.052Z,0.00
2018-04-06T04:52:14.992Z,0.00
2018-04-06T04:53:14.966Z,0.00
2018-04-06T04:54:14.914Z,0.00
2018-04-06T04:55:14.855Z,0.00
2018-04-06T04:56:14.815Z,0.00
2018-04-06T04:57:14.774Z,0.00
2018-04-06T04:58:14.718Z,0.00
2018-04-06T04:59:14.674Z,0.00
2018-04-06T05:00:14.670Z,0.00
2018-04-06T05:01:14.594Z,0.00
2018-04-06T05:02:14.543Z,0.00
2018-04-06T05:03:14.528Z,0.00
2018-04-06T05:04:14.484Z,0.00
2018-04-06T05:05:14.417Z,0.00
2018-04-06T05:06:14.396Z,0.00
2018-04-06T05:07:14.334Z,0.00
2018-04-06T05:08:14.310Z,0.00
2018-04-06T05:09:14.266Z,0.00
2018-04-06T05:10:14.203Z,0.00
2018-04-06T05:11:14.166Z,0.00
2018-04-06T05:12:14.146Z,0.00
2018-04-06T05:13:14.066Z,0.00
2018-04-06T05:14:14.048Z,0.00
2018-04-06T05:15:13.991Z,0.00
2018-04-06T05:16:13.963Z,0.00
2018-04-06T05:17:13.918Z,0.00
2018-04-06T05:18:13.870Z,0.00
2018-04-06T05:19:13.820Z,0.00
2018-04-06T05:20:13.773Z,0.00
2018-04-06T05:21:13.730Z,0.00
2018-04-06T05:22:13.689Z,0.00
2018-04-06T05:23:13.645Z,0.00
2018-04-06T05:24:13.607Z,0.00
2018-04-06T05:25:13.556Z,0.00
2018-04-06T05:26:13.540Z,0.00
2018-04-06T05:27:13.468Z,0.00
2018-04-06T05:28:13.438Z,0.00
2018-04-06T05:29:13.370Z,0.00
2018-04-06T05:30:13.360Z,0.00
2018-04-06T05:31:13.314Z,0.00
2018-04-06T05:32:13.267Z,0.00
2018-04-06T05:33:13.209Z,0.00
2018-04-06T05:34:13.169Z,0.00
2018-04-06T05:35:13.118Z,0.00
2018-04-06T05:36:13.079Z,0.00
2018-04-06T05:37:13.036Z,0.00
2018-04-06T05:38:13.018Z,0.00
2018-04-06T05:39:12.942Z,0.00
2018-04-06T05:40:12.902Z,0.00
2018-04-06T05:41:12.873Z,0.00
2018-04-06T05:42:12.845Z,0.00
2018-04-06T05:43:12.801Z,0.00
2018-04-06T05:44:12.726Z,0.00
2018-04-06T05:45:12.702Z,0.00
2018-04-06T05:46:12.631Z,0.00
2018-04-06T05:47:12.613Z,0.00
2018-04-06T05:48:12.543Z,0.00
2018-04-06T05:49:12.561Z,0.00
2018-04-06T05:50:12.465Z,0.00
2018-04-06T05:51:12.447Z,0.00
2018-04-06T05:52:12.381Z,0.00
2018-04-06T05:53:12.338Z,0.00
2018-04-06T05:54:12.313Z,0.00
2018-04-06T05:55:12.251Z,0.00
2018-04-06T05:56:12.244Z,0.00
2018-04-06T05:57:12.180Z,0.00
2018-04-06T05:58:12.116Z,0.00
2018-04-06T05:59:12.103Z,0.00
2018-04-06T06:00:12.024Z,0.00
2018-04-06T06:01:11.976Z,0.00
2018-04-06T06:02:11.936Z,0.00
2018-04-06T06:03:11.943Z,0.00
2018-04-06T06:04:11.864Z,0.00
2018-04-06T06:05:11.805Z,0.00
2018-04-06T06:06:11.785Z,0.00
2018-04-06T06:07:11.763Z,0.00
2018-04-06T06:08:11.687Z,0.00
2018-04-06T06:09:11.638Z,0.00
2018-04-06T06:10:11.594Z,0.00
2018-04-06T06:11:11.540Z,0.00
2018-04-06T06:12:11.523Z,0.00
2018-04-06T06:13:11.486Z,0.00
2018-04-06T06:14:11.411Z,0.00
2018-04-06T06:15:11.409Z,0.00
2018-04-06T06:16:11.332Z,0.00
2018-04-06T06:17:11.284Z,0.00
2018-04-06T06:18:11.240Z,0.00
2018-04-06T06:19:11.221Z,0.00
2018-04-06T06:20:11.165Z,0.00
2018-04-06T06:21:11.124Z,0.00
2018-04-06T06:22:11.080Z,0.00
2018-04-06T06:23:11.074Z,0.00
2018-04-06T06:24:11.022Z,0.00
2018-04-06T06:25:10.963Z,0.00
2018-04-06T06:26:10.913Z,0.00
2018-04-06T06:27:10.859Z,0.00
2018-04-06T06:28:10.824Z,0.00
2018-04-06T06:29:10.769Z,0.00
2018-04-06T06:30:10.711Z,0.00
2018-04-06T06:31:10.689Z,0.00
2018-04-06T06:32:10.641Z,0.00
2018-04-06T06:33:10.612Z,0.00
2018-04-06T06:34:10.562Z,0.00
2018-04-06T06:35:10.518Z,0.00
2018-04-06T06:36:10.455Z,0.00
2018-04-06T06:37:10.422Z,0.00
2018-04-06T06:38:10.386Z,0.00
2018-04-06T06:39:10.347Z,0.00
2018-04-06T06:40:10.323Z,0.00
2018-04-06T06:41:10.251Z,0.00
2018-04-06T06:42:10.215Z,0.00
2018-04-06T06:43:10.204Z,0.00
2018-04-06T06:44:10.116Z,0.00
2018-04-06T06:45:10.081Z,0.00
2018-04-06T06:46:10.046Z,0.00
2018-04-06T06:47:10.014Z,0.00
2018-04-06T06:48:09.939Z,0.00
2018-04-06T06:49:09.894Z,0.00
2018-04-06T06:50:09.880Z,0.00
2018-04-06T06:51:09.825Z,0.00
2018-04-06T06:52:09.813Z,0.00
2018-04-06T06:53:09.723Z,0.00
2018-04-06T06:54:09.687Z,0.00
2018-04-06T06:55:09.657Z,0.00
2018-04-06T06:56:09.582Z,0.00
2018-04-06T06:57:09.553Z,0.00
2018-04-06T06:58:09.514Z,0.00
2018-04-06T06:59:09.473Z,0.00
2018-04-06T07:00:09.421Z,0.00
2018-04-06T07:01:09.370Z,0.00
2018-04-06T07:02:09.346Z,0.00
2018-04-06T07:03:09.288Z,0.00
2018-04-06T07:04:09.239Z,0.00
2018-04-06T07:05:09.217Z,0.00
2018-04-06T07:06:09.160Z,0.00
2018-04-06T07:07:09.106Z,0.00
2018-04-06T07:08:09.071Z,0.00
2018-04-06T07:09:09.028Z,0.00
2018-04-06T07:10:08.998Z,0.00
2018-04-06T07:11:08.966Z,0.00
2018-04-06T07:12:08.882Z,0.00
2018-04-06T07:13:08.838Z,0.00
2018-04-06T07:14:08.825Z,0.00
2018-04-06T07:15:08.770Z,0.00
2018-04-06T07:16:08.714Z,0.00
2018-04-06T07:17:08.683Z,0.00
2018-04-06T07:18:08.660Z,0.00
2018-04-06T07:19:08.589Z,0.00
2018-04-06T07:20:08.572Z,0.00
2018-04-06T07:21:08.528Z,0.00
2018-04-06T07:22:08.459Z,0.00
2018-04-06T07:23:08.432Z,0.00
2018-04-06T07:24:08.378Z,0.00
2018-04-06T07:25:08.343Z,0.00
2018-04-06T07:26:08.325Z,0.00
2018-04-06T07:27:08.236Z,0.00
2018-04-06T07:28:08.197Z,0.00
2018-04-06T07:29:08.152Z,0.00
2018-04-06T07:30:08.124Z,0.00
2018-04-06T07:31:08.077Z,0.00
2018-04-06T07:32:08.037Z,0.00
2018-04-06T07:33:07.989Z,0.00
2018-04-06T07:34:07.942Z,0.00
2018-04-06T07:35:07.890Z,0.00
2018-04-06T07:36:07.858Z,0.00
2018-04-06T07:37:07.839Z,0.00
2018-04-06T07:38:07.771Z,0.00
2018-04-06T07:39:07.715Z,0.00
2018-04-06T07:40:07.690Z,0.00
2018-04-06T07:41:07.653Z,0.00
2018-04-06T07:42:07.592Z,0.00
2018-04-06T07:43:07.526Z,0.00
2018-04-06T07:44:07.496Z,0.00
2018-04-06T07:45:07.438Z,0.00
2018-04-06T07:46:07.435Z,0.00
2018-04-06T07:47:07.374Z,0.00
2018-04-06T07:48:07.333Z,0.00
2018-04-06T07:49:07.292Z,0.00
2018-04-06T07:50:07.233Z,0.00
2018-04-06T07:51:07.205Z,0.00
2018-04-06T07:52:07.152Z,0.00
2018-04-06T07:53:07.097Z,0.00
2018-04-06T07:54:07.064Z,0.00
2018-04-06T07:55:07.011Z,0.00
2018-04-06T07:56:07.004Z,0.00
2018-04-06T07:57:06.919Z,0.00
2018-04-06T07:58:06.883Z,0.00
2018-04-06T07:59:06.841Z,0.00
2018-04-06T08:00:06.787Z,0.00
2018-04-06T08:01:06.738Z,0.00
2018-04-06T08:02:06.715Z,0.00
2018-04-06T08:03:06.663Z,0.00
2018-04-06T08:04:06.653Z,0.00
2018-04-06T08:05:06.598Z,0.00
2018-04-06T08:06:06.554Z,0.00
2018-04-06T08:07:06.490Z,0.00
2018-04-06T08:08:06.458Z,0.00
2018-04-06T08:09:06.412Z,0.00
2018-04-06T08:10:06.358Z,0.00
2018-04-06T08:11:06.341Z,0.00
2018-04-06T08:12:06.272Z,0.00
2018-04-06T08:13:06.246Z,0.00
2018-04-06T08:14:06.201Z,0.00
2018-04-06T08:15:06.155Z,0.00
2018-04-06T08:16:06.090Z,0.00
2018-04-06T08:17:06.266Z,0.00
2018-04-06T08:18:06.011Z,0.00
2018-04-06T08:19:05.979Z,0.00
2018-04-06T08:20:05.905Z,0.00
2018-04-06T08:21:05.884Z,0.00
2018-04-06T08:22:05.851Z,0.00
2018-04-06T08:23:05.793Z,0.00
2018-04-06T08:24:05.791Z,0.00
2018-04-06T08:25:05.701Z,0.00
2018-04-06T08:26:05.695Z,0.00
2018-04-06T08:27:05.615Z,0.00
2018-04-06T08:28:05.586Z,0.00
2018-04-06T08:29:05.540Z,0.00
2018-04-06T08:30:05.487Z,0.00
2018-04-06T08:31:05.440Z,0.00
2018-04-06T08:32:05.391Z,0.00
2018-04-06T08:33:05.359Z,0.00
2018-04-06T08:34:05.304Z,0.00
2018-04-06T08:35:05.279Z,0.00
2018-04-06T08:36:05.217Z,0.00
2018-04-06T08:37:05.202Z,0.00
2018-04-06T08:38:05.135Z,0.00
2018-04-06T08:39:05.087Z,0.00
2018-04-06T08:40:05.041Z,0.00
2018-04-06T08:41:05.009Z,0.00
2018-04-06T08:42:04.962Z,0.00
2018-04-06T08:43:04.901Z,0.00
2018-04-06T08:44:04.877Z,0.00
2018-04-06T08:45:04.852Z,0.00
2018-04-06T08:46:04.807Z,0.00
2018-04-06T08:47:04.770Z,0.00
2018-04-06T08:48:04.685Z,0.00
2018-04-06T08:49:04.684Z,0.00
2018-04-06T08:50:04.597Z,0.00
2018-04-06T08:51:04.590Z,0.00
2018-04-06T08:52:04.545Z,0.00
2018-04-06T08:53:04.489Z,0.00
2018-04-06T08:54:04.432Z,0.00
2018-04-06T08:55:04.402Z,0.00
2018-04-06T08:56:04.352Z,0.00
2018-04-06T08:57:04.294Z,0.00
2018-04-06T08:58:04.257Z,0.00
2018-04-06T08:59:04.245Z,0.00
2018-04-06T09:00:04.198Z,0.00
2018-04-06T09:01:04.142Z,0.00
2018-04-06T09:02:04.081Z,0.00
2018-04-06T09:03:04.051Z,0.00
2018-04-06T09:04:04.005Z,0.00
2018-04-06T09:05:03.963Z,0.00
2018-04-06T09:06:03.907Z,0.00
2018-04-06T09:07:03.849Z,0.00
2018-04-06T09:08:03.807Z,0.00
2018-04-06T09:09:03.802Z,0.00
2018-04-06T09:10:03.725Z,0.00
2018-04-06T09:11:03.719Z,0.00
2018-04-06T09:12:03.636Z,0.00
2018-04-06T09:13:03.615Z,0.00
2018-04-06T09:14:03.569Z,0.00
2018-04-06T09:15:03.524Z,0.00
2018-04-06T09:16:03.484Z,0.00
2018-04-06T09:17:03.449Z,0.00
2018-04-06T09:18:03.378Z,0.00
2018-04-06T09:19:03.331Z,0.00
2018-04-06T09:20:03.306Z,5.63
2018-04-06T09:21:03.276Z,5.63
2018-04-06T09:22:03.212Z,5.63
2018-04-06T09:23:03.159Z,5.63
2018-04-06T09:24:03.110Z,5.63
2018-04-06T09:25:03.098Z,5.63
2018-04-06T09:26:03.045Z,11.25
2018-04-06T09:27:02.989Z,11.25
2018-04-06T09:28:02.927Z,11.25
2018-04-06T09:29:02.901Z,11.25
2018-04-06T09:30:02.837Z,11.25
2018-04-06T09:31:02.811Z,16.88
2018-04-06T09:32:02.767Z,16.88
2018-04-06T09:33:02.719Z,16.88
2018-04-06T09:34:02.676Z,22.50
2018-04-06T09:35:02.650Z,22.50
2018-04-06T09:36:02.619Z,22.50
2018-04-06T09:37:02.565Z,28.13
2018-04-06T09:38:02.503Z,28.13
2018-04-06T09:39:02.475Z,28.13
2018-04-06T09:40:02.417Z,33.75
2018-04-06T09:41:02.379Z,39.38
2018-04-06T09:42:02.321Z,45.00
2018-04-06T09:43:02.284Z,50.63
2018-04-06T09:44:02.270Z,39.38
2018-04-06T09:45:02.235Z,39.38
2018-04-06T09:46:02.140Z,39.38
2018-04-06T09:47:02.112Z,39.38
2018-04-06T09:48:02.066Z,39.38
2018-04-06T09:49:02.023Z,45.00
2018-04-06T09:50:01.997Z,45.00
2018-04-06T09:51:01.952Z,45.00
2018-04-06T09:52:01.919Z,45.00
2018-04-06T09:53:01.861Z,45.00
2018-04-06T09:54:01.805Z,50.63
2018-04-06T09:55:01.746Z,50.63
2018-04-06T09:56:01.702Z,61.88
2018-04-06T09:57:01.686Z,67.50
2018-04-06T09:58:01.629Z,67.50
2018-04-06T09:59:01.578Z,67.50
2018-04-06T10:00:01.530Z,73.13
2018-04-06T10:01:01.511Z,84.38
2018-04-06T10:02:01.456Z,112.50
2018-04-06T10:03:01.426Z,123.75
2018-04-06T10:04:01.393Z,101.25
2018-04-06T10:05:01.340Z,95.63
2018-04-06T10:06:01.308Z,95.63
2018-04-06T10:07:01.239Z,95.63
2018-04-06T10:08:01.193Z,106.88
2018-04-06T10:09:01.172Z,123.75
2018-04-06T10:10:01.133Z,118.13
2018-04-06T10:11:01.050Z,135.00
2018-04-06T10:12:01.046Z,129.38
2018-04-06T10:13:00.974Z,129.38
2018-04-06T10:14:00.948Z,140.63
2018-04-06T10:15:00.905Z,168.75
2018-04-06T10:16:00.849Z,157.50
2018-04-06T10:17:00.811Z,123.75
2018-04-06T10:18:00.786Z,123.75
2018-04-06T10:19:00.719Z,135.00
2018-04-06T10:20:00.661Z,140.63
2018-04-06T10:21:00.641Z,151.88
2018-04-06T10:22:00.651Z,174.38
2018-04-06T10:23:00.569Z,185.63
2018-04-06T10:24:00.496Z,157.50
2018-04-06T10:25:00.476Z,157.50
2018-04-06T10:26:00.431Z,163.13
2018-04-06T10:27:00.383Z,208.13
2018-04-06T10:28:00.366Z,371.25
2018-04-06T10:29:00.297Z,590.63
2018-04-06T10:30:00.261Z,748.13
2018-04-06T10:31:00.216Z,691.88
2018-04-06T10:32:00.169Z,781.88
2018-04-06T10:33:00.135Z,787.50
2018-04-06T10:34:00.079Z,410.63
2018-04-06T10:35:00.068Z,675.00
2018-04-06T10:36:00.028Z,585.00
2018-04-06T10:36:59.943Z,691.88
2018-04-06T10:37:59.937Z,871.88
2018-04-06T10:38:59.872Z,945.00
2018-04-06T10:39:59.858Z,995.63
2018-04-06T10:40:59.813Z,956.25
2018-04-06T10:41:59.776Z,939.38
2018-04-06T10:42:59.730Z,922.50
2018-04-06T10:43:59.712Z,922.50
2018-04-06T10:44:59.658Z,1018.13
2018-04-06T10:45:59.624Z,1063.13
2018-04-06T10:46:59.612Z,1108.13
2018-04-06T10:47:59.547Z,1068.75
2018-04-06T10:48:59.541Z,1074.38
2018-04-06T10:49:59.507Z,1130.63
2018-04-06T10:50:59.474Z,1108.13
2018-04-06T10:51:59.428Z,1040.63
2018-04-06T10:52:59.401Z,1057.50
2018-04-06T10:53:59.370Z,1119.38
2018-04-06T10:54:59.321Z,1063.13
2018-04-06T10:55:59.303Z,883.13
2018-04-06T10:56:59.248Z,416.25
2018-04-06T10:57:59.272Z,202.50
2018-04-06T10:58:59.193Z,241.88
2018-04-06T10:59:59.162Z,253.13
2018-04-06T11:00:59.124Z,264.38
2018-04-06T11:01:59.090Z,270.00
2018-04-06T11:02:59.057Z,253.13
2018-04-06T11:03:59.015Z,191.25
2018-04-06T11:04:59.001Z,157.50
2018-04-06T11:05:58.933Z,140.63
2018-04-06T11:06:58.926Z,140.63
2018-04-06T11:07:58.857Z,135.00
2018-04-06T11:08:58.839Z,135.00
2018-04-06T11:09:58.809Z,135.00
2018-04-06T11:10:58.744Z,129.38
2018-04-06T11:11:58.720Z,118.13
2018-04-06T11:12:58.680Z,112.50
2018-04-06T11:13:58.681Z,106.88
2018-04-06T11:14:58.627Z,112.50
2018-04-06T11:15:58.586Z,118.13
2018-04-06T11:16:58.534Z,129.38
2018-04-06T11:17:58.494Z,129.38
2018-04-06T11:18:58.434Z,135.00
2018-04-06T11:19:58.416Z,135.00
2018-04-06T11:20:58.362Z,118.13
2018-04-06T11:21:58.344Z,112.50
2018-04-06T11:22:58.347Z,106.88
2018-04-06T11:23:58.275Z,101.25
2018-04-06T11:24:58.224Z,95.63
2018-04-06T11:25:58.182Z,95.63
2018-04-06T11:26:58.113Z,95.63
2018-04-06T11:27:58.092Z,84.38
2018-04-06T11:28:58.049Z,84.38
2018-04-06T11:29:57.990Z,78.75
2018-04-06T11:30:57.999Z,78.75
2018-04-06T11:31:57.952Z,73.13
2018-04-06T11:32:57.897Z,73.13
2018-04-06T11:33:57.838Z,73.13
2018-04-06T11:34:57.823Z,73.13
2018-04-06T11:35:57.770Z,73.13
2018-04-06T11:36:57.715Z,78.75
2018-04-06T11:37:57.684Z,84.38
2018-04-06T11:38:57.662Z,90.00
2018-04-06T11:39:57.598Z,101.25
2018-04-06T11:40:57.566Z,123.75
2018-04-06T11:41:57.520Z,140.63
2018-04-06T11:42:57.477Z,174.38
2018-04-06T11:43:57.436Z,191.25
2018-04-06T11:44:57.389Z,208.13
2018-04-06T11:45:57.325Z,191.25
2018-04-06T11:46:57.292Z,185.63
2018-04-06T11:47:57.293Z,168.75
2018-04-06T11:48:57.200Z,168.75
2018-04-06T11:49:57.193Z,163.13
2018-04-06T11:50:57.143Z,163.13
2018-04-06T11:51:57.092Z,168.75
2018-04-06T11:52:57.048Z,163.13
2018-04-06T11:53:57.018Z,174.38
2018-04-06T11:54:56.965Z,174.38
2018-04-06T11:55:56.925Z,146.25
2018-04-06T11:56:56.881Z,140.63
2018-04-06T11:57:56.853Z,123.75
2018-04-06T11:58:56.830Z,123.75
2018-04-06T11:59:56.777Z,129.38
2018-04-06T12:00:56.714Z,129.38
2018-04-06T12:01:56.705Z,123.75
2018-04-06T12:02:56.631Z,129.38
2018-04-06T12:03:56.602Z,123.75
2018-04-06T12:04:56.534Z,112.50
2018-04-06T12:05:56.511Z,123.75
2018-04-06T12:06:56.451Z,123.75
2018-04-06T12:07:56.455Z,123.75
2018-04-06T12:08:56.386Z,129.38
2018-04-06T12:09:56.334Z,140.63
2018-04-06T12:10:56.303Z,129.38
2018-04-06T12:11:56.253Z,135.00
2018-04-06T12:12:56.204Z,140.63
2018-04-06T12:13:56.164Z,129.38
2018-04-06T12:14:56.141Z,123.75
2018-04-06T12:15:56.076Z,118.13
2018-04-06T12:16:56.029Z,95.63
2018-04-06T12:17:56.007Z,84.38
2018-04-06T12:18:55.949Z,90.00
2018-04-06T12:19:55.904Z,90.00
2018-04-06T12:20:55.894Z,84.38
2018-04-06T12:21:55.836Z,84.38
2018-04-06T12:22:55.805Z,84.38
2018-04-06T12:23:55.758Z,90.00
2018-04-06T12:24:55.709Z,95.63
2018-04-06T12:25:55.664Z,95.63
2018-04-06T12:26:55.615Z,95.63
2018-04-06T12:27:55.574Z,101.25
2018-04-06T12:28:55.526Z,95.63
2018-04-06T12:29:55.507Z,106.88
2018-04-06T12:30:55.499Z,101.25
2018-04-06T12:31:55.423Z,101.25
2018-04-06T12:32:55.384Z,95.63
2018-04-06T12:33:55.337Z,95.63
2018-04-06T12:34:55.294Z,101.25
2018-04-06T12:35:55.259Z,112.50
2018-04-06T12:36:55.217Z,112.50
2018-04-06T12:37:55.163Z,112.50
2018-04-06T12:38:55.136Z,106.88
2018-04-06T12:39:55.096Z,118.13
2018-04-06T12:40:55.068Z,101.25
2018-04-06T12:41:55.016Z,95.63
2018-04-06T12:42:54.965Z,90.00
2018-04-06T12:43:54.918Z,90.00
2018-04-06T12:44:54.883Z,84.38
2018-04-06T12:45:54.819Z,84.38
2018-04-06T12:46:54.799Z,84.38
2018-04-06T12:47:54.757Z,84.38
2018-04-06T12:48:54.791Z,84.38
2018-04-06T12:49:54.667Z,78.75
2018-04-06T12:50:54.618Z,78.75
2018-04-06T12:51:54.579Z,84.38
2018-04-06T12:52:54.564Z,84.38
2018-04-06T12:53:54.508Z,84.38
2018-04-06T12:54:54.448Z,95.63
2018-04-06T12:55:54.432Z,118.13
2018-04-06T12:56:54.358Z,118.13
2018-04-06T12:57:54.316Z,118.13
2018-04-06T12:58:54.308Z,101.25
2018-04-06T12:59:54.254Z,95.63
2018-04-06T13:00:54.189Z,101.25
2018-04-06T13:01:54.157Z,101.25
2018-04-06T13:02:54.135Z,106.88
2018-04-06T13:03:54.057Z,106.88
2018-04-06T13:04:54.027Z,112.50
2018-04-06T13:05:54.014Z,112.50